Terminal Aerodrome Forecast
Issued by NWS

Home | Current Version | Previous Version | Text Only | Print | Product List | Glossary On
Versions: 1 2 3 4 5 6 7 8 9 10 11 12 13 14 15
053
FTUS41 KPBZ 270533
TAFZZV
TAF
KZZV 270533Z 2706/2806 20006KT 6SM -SHRA SCT025 OVC035
     FM270800 22004KT 6SM BR SCT030 OVC060
     FM270900 22004KT P6SM SCT035 BKN100
     FM272300 32003KT P6SM VCSH BKN080=

USA.gov is the U.S. government's official web portal to all federal, state and local government web resources and services.